sensor_id;sensor_type;location;lat;lon;timestamp;P1;durP1;ratioP1;P2;durP2;ratioP2
13197;SDS011;6664;52.514;13.440;2023-04-12T00:02:33;1.97;;;1.23;;
13197;SDS011;6664;52.514;13.440;2023-04-12T00:05:20;3.93;;;2.20;;
13197;SDS011;6664;52.514;13.440;2023-04-12T00:08:07;2.20;;;2.00;;
13197;SDS011;6664;52.514;13.440;2023-04-12T00:10:54;4.83;;;1.57;;
13197;SDS011;6664;52.514;13.440;2023-04-12T00:13:40;3.23;;;1.90;;
13197;SDS011;6664;52.514;13.440;2023-04-12T00:16:26;1.83;;;1.73;;
13197;SDS011;6664;52.514;13.440;2023-04-12T00:19:15;5.30;;;1.50;;
13197;SDS011;6664;52.514;13.440;2023-04-12T00:22:01;3.40;;;1.70;;
13197;SDS011;6664;52.514;13.440;2023-04-12T00:24:47;2.17;;;2.03;;
13197;SDS011;6664;52.514;13.440;2023-04-12T00:27:33;3.90;;;1.30;;
13197;SDS011;6664;52.514;13.440;2023-04-12T00:30:19;1.67;;;1.57;;
13197;SDS011;6664;52.514;13.440;2023-04-12T00:33:09;6.17;;;2.03;;
13197;SDS011;6664;52.514;13.440;2023-04-12T00:35:55;2.27;;;2.17;;
13197;SDS011;6664;52.514;13.440;2023-04-12T00:38:41;3.60;;;1.80;;
13197;SDS011;6664;52.514;13.440;2023-04-12T00:41:29;2.50;;;1.67;;
13197;SDS011;6664;52.514;13.440;2023-04-12T00:44:15;1.63;;;1.53;;
13197;SDS011;6664;52.514;13.440;2023-04-12T00:47:05;1.80;;;1.70;;
13197;SDS011;6664;52.514;13.440;2023-04-12T00:49:54;2.93;;;1.70;;
13197;SDS011;6664;52.514;13.440;2023-04-12T00:52:40;1.90;;;1.80;;
13197;SDS011;6664;52.514;13.440;2023-04-12T00:55:28;3.73;;;1.90;;
13197;SDS011;6664;52.514;13.440;2023-04-12T00:58:15;1.43;;;1.33;;
13197;SDS011;6664;52.514;13.440;2023-04-12T01:01:00;1.53;;;1.43;;
13197;SDS011;6664;52.514;13.440;2023-04-12T01:03:47;2.10;;;1.60;;
13197;SDS011;6664;52.514;13.440;2023-04-12T01:09:40;3.40;;;1.30;;
13197;SDS011;6664;52.514;13.440;2023-04-12T01:18:44;2.70;;;1.60;;
13197;SDS011;6664;52.514;13.440;2023-04-12T01:21:52;3.20;;;1.40;;
13197;SDS011;6664;52.514;13.440;2023-04-12T01:27:44;5.03;;;2.10;;
13197;SDS011;6664;52.514;13.440;2023-04-12T01:30:32;4.53;;;2.20;;
13197;SDS011;6664;52.514;13.440;2023-04-12T01:33:18;4.30;;;1.60;;
13197;SDS011;6664;52.514;13.440;2023-04-12T01:36:15;5.43;;;1.93;;
13197;SDS011;6664;52.514;13.440;2023-04-12T01:39:04;6.93;;;2.23;;
13197;SDS011;6664;52.514;13.440;2023-04-12T01:41:51;2.43;;;2.23;;
13197;SDS011;6664;52.514;13.440;2023-04-12T01:44:37;2.50;;;2.30;;
13197;SDS011;6664;52.514;13.440;2023-04-12T01:47:28;2.50;;;2.00;;
13197;SDS011;6664;52.514;13.440;2023-04-12T01:50:17;2.53;;;2.33;;
13197;SDS011;6664;52.514;13.440;2023-04-12T01:53:11;4.13;;;3.00;;
13197;SDS011;6664;52.514;13.440;2023-04-12T01:56:03;3.30;;;2.00;;
13197;SDS011;6664;52.514;13.440;2023-04-12T01:58:52;2.40;;;2.30;;
13197;SDS011;6664;52.514;13.440;2023-04-12T02:01:40;2.50;;;2.30;;
13197;SDS011;6664;52.514;13.440;2023-04-12T02:04:26;3.40;;;2.30;;
13197;SDS011;6664;52.514;13.440;2023-04-12T02:07:13;2.40;;;2.20;;
13197;SDS011;6664;52.514;13.440;2023-04-12T02:10:02;7.40;;;2.27;;
13197;SDS011;6664;52.514;13.440;2023-04-12T02:12:51;2.30;;;2.10;;
13197;SDS011;6664;52.514;13.440;2023-04-12T02:15:37;9.60;;;2.10;;
13197;SDS011;6664;52.514;13.440;2023-04-12T02:18:25;3.93;;;2.47;;
13197;SDS011;6664;52.514;13.440;2023-04-12T02:21:11;2.50;;;2.30;;
13197;SDS011;6664;52.514;13.440;2023-04-12T02:23:57;5.07;;;2.30;;
13197;SDS011;6664;52.514;13.440;2023-04-12T02:26:44;2.93;;;2.30;;
13197;SDS011;6664;52.514;13.440;2023-04-12T02:29:30;5.00;;;2.80;;
13197;SDS011;6664;52.514;13.440;2023-04-12T02:32:16;2.90;;;2.70;;
13197;SDS011;6664;52.514;13.440;2023-04-12T02:35:02;5.10;;;2.53;;
13197;SDS011;6664;52.514;13.440;2023-04-12T02:37:48;2.00;;;1.90;;
13197;SDS011;6664;52.514;13.440;2023-04-12T02:40:36;2.60;;;2.40;;
13197;SDS011;6664;52.514;13.440;2023-04-12T02:43:26;4.90;;;2.40;;
13197;SDS011;6664;52.514;13.440;2023-04-12T02:46:16;4.90;;;2.40;;
13197;SDS011;6664;52.514;13.440;2023-04-12T02:49:04;3.93;;;2.27;;
13197;SDS011;6664;52.514;13.440;2023-04-12T02:51:49;3.60;;;2.00;;
13197;SDS011;6664;52.514;13.440;2023-04-12T02:54:35;7.40;;;2.60;;
13197;SDS011;6664;52.514;13.440;2023-04-12T02:57:21;1.87;;;1.73;;
13197;SDS011;6664;52.514;13.440;2023-04-12T03:00:07;3.17;;;2.23;;
13197;SDS011;6664;52.514;13.440;2023-04-12T03:02:56;5.53;;;2.30;;
13197;SDS011;6664;52.514;13.440;2023-04-12T03:05:43;4.17;;;2.67;;
13197;SDS011;6664;52.514;13.440;2023-04-12T03:08:31;2.83;;;2.63;;
13197;SDS011;6664;52.514;13.440;2023-04-12T03:11:16;2.90;;;1.93;;
13197;SDS011;6664;52.514;13.440;2023-04-12T03:14:04;3.10;;;2.70;;
13197;SDS011;6664;52.514;13.440;2023-04-12T03:16:49;4.33;;;2.60;;
13197;SDS011;6664;52.514;13.440;2023-04-12T03:19:37;3.37;;;2.33;;
13197;SDS011;6664;52.514;13.440;2023-04-12T03:22:27;2.93;;;2.63;;
13197;SDS011;6664;52.514;13.440;2023-04-12T03:25:12;3.80;;;2.87;;
13197;SDS011;6664;52.514;13.440;2023-04-12T03:27:58;3.83;;;3.33;;
13197;SDS011;6664;52.514;13.440;2023-04-12T03:30:44;3.47;;;2.40;;
13197;SDS011;6664;52.514;13.440;2023-04-12T03:33:29;4.93;;;3.40;;
13197;SDS011;6664;52.514;13.440;2023-04-12T03:36:15;3.90;;;2.73;;
13197;SDS011;6664;52.514;13.440;2023-04-12T03:39:00;4.97;;;2.70;;
13197;SDS011;6664;52.514;13.440;2023-04-12T03:41:45;2.60;;;2.33;;
13197;SDS011;6664;52.514;13.440;2023-04-12T03:44:33;6.27;;;3.17;;
13197;SDS011;6664;52.514;13.440;2023-04-12T03:47:21;3.00;;;2.70;;
13197;SDS011;6664;52.514;13.440;2023-04-12T03:50:07;3.00;;;2.80;;
13197;SDS011;6664;52.514;13.440;2023-04-12T03:52:58;5.70;;;3.10;;
13197;SDS011;6664;52.514;13.440;2023-04-12T03:55:44;5.40;;;2.77;;
13197;SDS011;6664;52.514;13.440;2023-04-12T03:58:29;5.27;;;3.20;;
13197;SDS011;6664;52.514;13.440;2023-04-12T04:01:17;7.73;;;3.30;;
13197;SDS011;6664;52.514;13.440;2023-04-12T04:04:02;10.73;;;3.10;;
13197;SDS011;6664;52.514;13.440;2023-04-12T04:06:51;5.60;;;2.57;;
13197;SDS011;6664;52.514;13.440;2023-04-12T04:09:37;4.23;;;2.70;;
13197;SDS011;6664;52.514;13.440;2023-04-12T04:12:25;4.67;;;3.50;;
13197;SDS011;6664;52.514;13.440;2023-04-12T04:15:13;4.03;;;3.53;;
13197;SDS011;6664;52.514;13.440;2023-04-12T04:17:59;11.53;;;3.20;;
13197;SDS011;6664;52.514;13.440;2023-04-12T04:20:45;6.43;;;3.20;;
13197;SDS011;6664;52.514;13.440;2023-04-12T04:23:31;12.23;;;3.10;;
13197;SDS011;6664;52.514;13.440;2023-04-12T04:26:24;3.50;;;3.10;;
13197;SDS011;6664;52.514;13.440;2023-04-12T04:29:17;3.80;;;3.10;;
13197;SDS011;6664;52.514;13.440;2023-04-12T04:32:02;3.40;;;3.10;;
13197;SDS011;6664;52.514;13.440;2023-04-12T04:34:48;7.30;;;3.07;;
13197;SDS011;6664;52.514;13.440;2023-04-12T04:37:33;6.23;;;3.63;;
13197;SDS011;6664;52.514;13.440;2023-04-12T04:40:19;7.30;;;3.23;;
13197;SDS011;6664;52.514;13.440;2023-04-12T04:43:06;5.27;;;3.30;;
13197;SDS011;6664;52.514;13.440;2023-04-12T04:45:51;4.30;;;3.27;;
13197;SDS011;6664;52.514;13.440;2023-04-12T04:48:40;5.77;;;3.90;;
13197;SDS011;6664;52.514;13.440;2023-04-12T04:51:26;7.37;;;3.90;;
13197;SDS011;6664;52.514;13.440;2023-04-12T04:54:13;3.80;;;3.47;;
13197;SDS011;6664;52.514;13.440;2023-04-12T04:57:00;3.77;;;3.13;;
13197;SDS011;6664;52.514;13.440;2023-04-12T04:59:47;3.53;;;3.20;;
13197;SDS011;6664;52.514;13.440;2023-04-12T05:02:32;3.30;;;3.00;;
13197;SDS011;6664;52.514;13.440;2023-04-12T05:05:18;3.60;;;2.80;;
13197;SDS011;6664;52.514;13.440;2023-04-12T05:08:07;3.40;;;2.70;;
13197;SDS011;6664;52.514;13.440;2023-04-12T05:10:54;6.60;;;3.70;;
13197;SDS011;6664;52.514;13.440;2023-04-12T05:13:40;3.60;;;3.30;;
13197;SDS011;6664;52.514;13.440;2023-04-12T05:16:26;5.60;;;3.30;;
13197;SDS011;6664;52.514;13.440;2023-04-12T05:19:12;4.50;;;3.83;;
13197;SDS011;6664;52.514;13.440;2023-04-12T05:22:01;5.60;;;4.07;;
13197;SDS011;6664;52.514;13.440;2023-04-12T05:24:47;6.30;;;4.37;;
13197;SDS011;6664;52.514;13.440;2023-04-12T05:27:35;4.67;;;3.47;;
13197;SDS011;6664;52.514;13.440;2023-04-12T05:30:23;6.20;;;3.93;;
13197;SDS011;6664;52.514;13.440;2023-04-12T05:33:09;5.97;;;3.83;;
13197;SDS011;6664;52.514;13.440;2023-04-12T05:35:54;6.47;;;4.10;;
13197;SDS011;6664;52.514;13.440;2023-04-12T05:38:40;5.20;;;3.43;;
13197;SDS011;6664;52.514;13.440;2023-04-12T05:41:25;5.33;;;3.97;;
13197;SDS011;6664;52.514;13.440;2023-04-12T05:44:11;5.30;;;3.97;;
13197;SDS011;6664;52.514;13.440;2023-04-12T05:46:59;6.83;;;4.07;;
13197;SDS011;6664;52.514;13.440;2023-04-12T05:49:44;4.27;;;3.73;;
13197;SDS011;6664;52.514;13.440;2023-04-12T05:52:30;6.57;;;3.80;;
13197;SDS011;6664;52.514;13.440;2023-04-12T05:55:15;3.33;;;3.03;;
13197;SDS011;6664;52.514;13.440;2023-04-12T05:58:03;3.93;;;3.57;;
13197;SDS011;6664;52.514;13.440;2023-04-12T06:00:48;4.30;;;3.90;;
13197;SDS011;6664;52.514;13.440;2023-04-12T06:03:33;5.43;;;3.77;;
13197;SDS011;6664;52.514;13.440;2023-04-12T06:06:20;8.53;;;3.83;;
13197;SDS011;6664;52.514;13.440;2023-04-12T06:09:08;5.20;;;3.97;;
13197;SDS011;6664;52.514;13.440;2023-04-12T06:11:54;5.10;;;3.97;;
13197;SDS011;6664;52.514;13.440;2023-04-12T06:14:40;5.77;;;3.40;;
13197;SDS011;6664;52.514;13.440;2023-04-12T06:17:27;4.23;;;3.10;;
13197;SDS011;6664;52.514;13.440;2023-04-12T06:20:13;8.20;;;3.40;;
13197;SDS011;6664;52.514;13.440;2023-04-12T06:22:59;4.23;;;3.90;;
13197;SDS011;6664;52.514;13.440;2023-04-12T06:25:45;3.97;;;3.40;;
13197;SDS011;6664;52.514;13.440;2023-04-12T06:28:31;6.00;;;2.67;;
13197;SDS011;6664;52.514;13.440;2023-04-12T06:31:17;4.20;;;3.33;;
13197;SDS011;6664;52.514;13.440;2023-04-12T06:34:02;3.83;;;3.27;;
13197;SDS011;6664;52.514;13.440;2023-04-12T06:36:47;3.70;;;3.40;;
13197;SDS011;6664;52.514;13.440;2023-04-12T06:39:35;3.70;;;3.40;;
13197;SDS011;6664;52.514;13.440;2023-04-12T06:42:21;3.87;;;2.70;;
13197;SDS011;6664;52.514;13.440;2023-04-12T06:45:07;4.40;;;3.60;;
13197;SDS011;6664;52.514;13.440;2023-04-12T06:47:53;3.73;;;3.20;;
13197;SDS011;6664;52.514;13.440;2023-04-12T06:50:41;6.13;;;3.63;;
13197;SDS011;6664;52.514;13.440;2023-04-12T06:53:26;5.47;;;3.73;;
13197;SDS011;6664;52.514;13.440;2023-04-12T06:56:13;17.30;;;3.50;;
13197;SDS011;6664;52.514;13.440;2023-04-12T06:59:01;2.83;;;2.63;;
13197;SDS011;6664;52.514;13.440;2023-04-12T07:01:46;5.07;;;3.03;;
13197;SDS011;6664;52.514;13.440;2023-04-12T07:04:32;8.40;;;3.40;;
13197;SDS011;6664;52.514;13.440;2023-04-12T07:07:20;4.10;;;2.60;;
13197;SDS011;6664;52.514;13.440;2023-04-12T07:10:06;5.07;;;2.67;;
13197;SDS011;6664;52.514;13.440;2023-04-12T07:12:52;3.23;;;2.90;;
13197;SDS011;6664;52.514;13.440;2023-04-12T07:15:37;4.63;;;2.70;;
13197;SDS011;6664;52.514;13.440;2023-04-12T07:18:26;7.83;;;3.37;;
13197;SDS011;6664;52.514;13.440;2023-04-12T07:21:12;7.33;;;2.50;;
13197;SDS011;6664;52.514;13.440;2023-04-12T07:24:02;3.53;;;2.80;;
13197;SDS011;6664;52.514;13.440;2023-04-12T07:26:47;2.57;;;2.37;;
13197;SDS011;6664;52.514;13.440;2023-04-12T07:29:36;2.53;;;2.33;;
13197;SDS011;6664;52.514;13.440;2023-04-12T07:32:22;20.13;;;2.20;;
13197;SDS011;6664;52.514;13.440;2023-04-12T07:35:07;6.80;;;2.80;;
13197;SDS011;6664;52.514;13.440;2023-04-12T07:37:53;2.50;;;1.83;;
13197;SDS011;6664;52.514;13.440;2023-04-12T07:40:42;3.20;;;2.53;;
13197;SDS011;6664;52.514;13.440;2023-04-12T07:43:28;1.97;;;1.87;;
13197;SDS011;6664;52.514;13.440;2023-04-12T07:46:13;3.07;;;2.13;;
13197;SDS011;6664;52.514;13.440;2023-04-12T07:48:59;13.83;;;2.00;;
13197;SDS011;6664;52.514;13.440;2023-04-12T07:51:45;5.30;;;1.50;;
13197;SDS011;6664;52.514;13.440;2023-04-12T07:54:31;3.03;;;1.70;;
13197;SDS011;6664;52.514;13.440;2023-04-12T07:57:16;2.60;;;1.83;;
13197;SDS011;6664;52.514;13.440;2023-04-12T08:00:07;1.40;;;1.27;;
13197;SDS011;6664;52.514;13.440;2023-04-12T08:02:53;2.30;;;1.17;;
13197;SDS011;6664;52.514;13.440;2023-04-12T08:05:40;1.20;;;1.10;;
13197;SDS011;6664;52.514;13.440;2023-04-12T08:08:26;2.87;;;1.70;;
13197;SDS011;6664;52.514;13.440;2023-04-12T08:11:14;6.50;;;1.30;;
13197;SDS011;6664;52.514;13.440;2023-04-12T08:13:59;2.93;;;0.90;;
13197;SDS011;6664;52.514;13.440;2023-04-12T08:16:45;3.03;;;1.53;;
13197;SDS011;6664;52.514;13.440;2023-04-12T08:19:33;3.23;;;1.70;;
13197;SDS011;6664;52.514;13.440;2023-04-12T08:22:19;2.20;;;1.20;;
13197;SDS011;6664;52.514;13.440;2023-04-12T08:25:07;1.20;;;1.10;;
13197;SDS011;6664;52.514;13.440;2023-04-12T08:27:53;2.30;;;1.30;;
13197;SDS011;6664;52.514;13.440;2023-04-12T08:30:41;1.60;;;1.00;;
13197;SDS011;6664;52.514;13.440;2023-04-12T08:33:27;1.57;;;0.80;;
13197;SDS011;6664;52.514;13.440;2023-04-12T08:36:13;1.60;;;1.20;;
13197;SDS011;6664;52.514;13.440;2023-04-12T08:38:59;1.13;;;0.87;;
13197;SDS011;6664;52.514;13.440;2023-04-12T08:41:45;1.90;;;0.93;;
13197;SDS011;6664;52.514;13.440;2023-04-12T08:44:35;5.03;;;1.10;;
13197;SDS011;6664;52.514;13.440;2023-04-12T08:47:22;2.20;;;0.97;;
13197;SDS011;6664;52.514;13.440;2023-04-12T08:50:11;4.23;;;1.10;;
13197;SDS011;6664;52.514;13.440;2023-04-12T08:52:58;1.13;;;1.03;;
13197;SDS011;6664;52.514;13.440;2023-04-12T08:55:44;2.60;;;1.10;;
13197;SDS011;6664;52.514;13.440;2023-04-12T08:58:32;1.13;;;1.03;;
13197;SDS011;6664;52.514;13.440;2023-04-12T09:01:19;2.77;;;1.43;;
13197;SDS011;6664;52.514;13.440;2023-04-12T09:04:05;0.73;;;0.73;;
13197;SDS011;6664;52.514;13.440;2023-04-12T09:06:56;3.90;;;1.37;;
13197;SDS011;6664;52.514;13.440;2023-04-12T09:09:42;3.23;;;1.00;;
13197;SDS011;6664;52.514;13.440;2023-04-12T09:12:29;5.30;;;1.27;;
13197;SDS011;6664;52.514;13.440;2023-04-12T09:15:15;4.13;;;0.80;;
13197;SDS011;6664;52.514;13.440;2023-04-12T09:18:02;6.57;;;1.33;;
13197;SDS011;6664;52.514;13.440;2023-04-12T09:20:48;2.83;;;1.07;;
13197;SDS011;6664;52.514;13.440;2023-04-12T09:23:33;1.10;;;1.10;;
13197;SDS011;6664;52.514;13.440;2023-04-12T09:26:27;3.13;;;1.10;;
13197;SDS011;6664;52.514;13.440;2023-04-12T09:29:23;1.60;;;1.00;;
13197;SDS011;6664;52.514;13.440;2023-04-12T09:32:11;2.20;;;1.23;;
13197;SDS011;6664;52.514;13.440;2023-04-12T09:34:57;1.60;;;1.00;;
13197;SDS011;6664;52.514;13.440;2023-04-12T09:37:44;7.03;;;1.43;;
13197;SDS011;6664;52.514;13.440;2023-04-12T09:40:40;1.27;;;1.17;;
13197;SDS011;6664;52.514;13.440;2023-04-12T09:43:36;1.57;;;1.03;;
13197;SDS011;6664;52.514;13.440;2023-04-12T09:46:22;2.73;;;1.20;;
13197;SDS011;6664;52.514;13.440;2023-04-12T09:49:08;1.40;;;1.03;;
13197;SDS011;6664;52.514;13.440;2023-04-12T09:51:56;2.60;;;1.10;;
13197;SDS011;6664;52.514;13.440;2023-04-12T09:54:44;1.10;;;1.00;;
13197;SDS011;6664;52.514;13.440;2023-04-12T09:57:31;1.03;;;0.93;;
13197;SDS011;6664;52.514;13.440;2023-04-12T10:00:18;2.90;;;1.17;;
13197;SDS011;6664;52.514;13.440;2023-04-12T10:03:10;3.73;;;1.40;;
13197;SDS011;6664;52.514;13.440;2023-04-12T10:05:59;1.13;;;1.10;;
13197;SDS011;6664;52.514;13.440;2023-04-12T10:08:48;0.93;;;0.80;;
13197;SDS011;6664;52.514;13.440;2023-04-12T10:11:33;2.67;;;1.00;;
13197;SDS011;6664;52.514;13.440;2023-04-12T10:14:21;5.90;;;1.60;;
13197;SDS011;6664;52.514;13.440;2023-04-12T10:17:10;1.70;;;1.00;;
13197;SDS011;6664;52.514;13.440;2023-04-12T10:20:01;4.20;;;1.00;;
13197;SDS011;6664;52.514;13.440;2023-04-12T10:22:49;1.47;;;1.00;;
13197;SDS011;6664;52.514;13.440;2023-04-12T10:25:38;7.07;;;1.30;;
13197;SDS011;6664;52.514;13.440;2023-04-12T10:28:29;2.50;;;1.10;;
13197;SDS011;6664;52.514;13.440;2023-04-12T10:31:27;1.43;;;1.00;;
13197;SDS011;6664;52.514;13.440;2023-04-12T10:34:14;1.43;;;1.10;;
13197;SDS011;6664;52.514;13.440;2023-04-12T10:37:00;1.57;;;1.40;;
13197;SDS011;6664;52.514;13.440;2023-04-12T10:39:53;3.87;;;1.40;;
13197;SDS011;6664;52.514;13.440;2023-04-12T10:42:39;3.27;;;1.10;;
13197;SDS011;6664;52.514;13.440;2023-04-12T10:48:34;1.57;;;0.87;;
13197;SDS011;6664;52.514;13.440;2023-04-12T10:51:21;2.13;;;1.10;;
13197;SDS011;6664;52.514;13.440;2023-04-12T10:57:02;1.63;;;1.00;;
13197;SDS011;6664;52.514;13.440;2023-04-12T10:59:54;1.53;;;1.07;;
13197;SDS011;6664;52.514;13.440;2023-04-12T11:03:04;3.50;;;0.80;;
13197;SDS011;6664;52.514;13.440;2023-04-12T11:05:58;5.27;;;1.23;;
13197;SDS011;6664;52.514;13.440;2023-04-12T11:09:03;4.07;;;1.37;;
13197;SDS011;6664;52.514;13.440;2023-04-12T11:11:50;0.90;;;0.90;;
13197;SDS011;6664;52.514;13.440;2023-04-12T11:14:49;0.80;;;0.80;;
13197;SDS011;6664;52.514;13.440;2023-04-12T11:17:36;1.90;;;0.87;;
13197;SDS011;6664;52.514;13.440;2023-04-12T11:20:22;3.23;;;1.10;;
13197;SDS011;6664;52.514;13.440;2023-04-12T11:23:11;3.57;;;1.20;;
13197;SDS011;6664;52.514;13.440;2023-04-12T11:25:56;1.97;;;0.97;;
13197;SDS011;6664;52.514;13.440;2023-04-12T11:28:42;1.47;;;1.00;;
13197;SDS011;6664;52.514;13.440;2023-04-12T11:31:28;6.17;;;1.20;;
13197;SDS011;6664;52.514;13.440;2023-04-12T11:34:14;1.20;;;0.93;;
13197;SDS011;6664;52.514;13.440;2023-04-12T11:37:06;4.10;;;1.30;;
13197;SDS011;6664;52.514;13.440;2023-04-12T11:39:54;1.10;;;0.90;;
13197;SDS011;6664;52.514;13.440;2023-04-12T11:42:40;0.80;;;0.80;;
13197;SDS011;6664;52.514;13.440;2023-04-12T11:45:26;3.50;;;1.37;;
13197;SDS011;6664;52.514;13.440;2023-04-12T11:48:12;7.03;;;1.60;;
13197;SDS011;6664;52.514;13.440;2023-04-12T11:51:00;4.80;;;1.23;;
13197;SDS011;6664;52.514;13.440;2023-04-12T11:54:03;1.70;;;0.80;;
13197;SDS011;6664;52.514;13.440;2023-04-12T11:56:49;1.60;;;0.90;;
13197;SDS011;6664;52.514;13.440;2023-04-12T11:59:34;4.90;;;1.50;;
13197;SDS011;6664;52.514;13.440;2023-04-12T12:02:22;3.47;;;1.07;;
13197;SDS011;6664;52.514;13.440;2023-04-12T12:05:09;2.67;;;1.20;;
13197;SDS011;6664;52.514;13.440;2023-04-12T12:07:55;1.20;;;1.10;;
13197;SDS011;6664;52.514;13.440;2023-04-12T12:10:43;5.33;;;1.30;;
13197;SDS011;6664;52.514;13.440;2023-04-12T12:13:50;1.23;;;0.93;;
13197;SDS011;6664;52.514;13.440;2023-04-12T12:16:37;1.30;;;1.00;;
13197;SDS011;6664;52.514;13.440;2023-04-12T12:19:26;0.80;;;0.80;;
13197;SDS011;6664;52.514;13.440;2023-04-12T12:22:12;2.33;;;0.90;;
13197;SDS011;6664;52.514;13.440;2023-04-12T12:25:00;2.90;;;1.20;;
13197;SDS011;6664;52.514;13.440;2023-04-12T12:27:45;1.70;;;0.97;;
13197;SDS011;6664;52.514;13.440;2023-04-12T12:30:36;2.00;;;0.90;;
13197;SDS011;6664;52.514;13.440;2023-04-12T12:33:24;17.33;;;1.67;;
13197;SDS011;6664;52.514;13.440;2023-04-12T12:36:32;2.17;;;1.30;;
13197;SDS011;6664;52.514;13.440;2023-04-12T12:39:22;3.00;;;1.10;;
13197;SDS011;6664;52.514;13.440;2023-04-12T12:42:08;2.70;;;1.20;;
13197;SDS011;6664;52.514;13.440;2023-04-12T12:44:56;2.00;;;1.00;;
13197;SDS011;6664;52.514;13.440;2023-04-12T12:47:45;1.00;;;0.90;;
13197;SDS011;6664;52.514;13.440;2023-04-12T12:50:38;1.00;;;0.90;;
13197;SDS011;6664;52.514;13.440;2023-04-12T12:53:26;1.90;;;1.00;;
13197;SDS011;6664;52.514;13.440;2023-04-12T12:56:14;1.77;;;0.90;;
13197;SDS011;6664;52.514;13.440;2023-04-12T12:59:00;2.53;;;1.83;;
13197;SDS011;6664;52.514;13.440;2023-04-12T13:01:49;2.13;;;1.00;;
13197;SDS011;6664;52.514;13.440;2023-04-12T13:04:35;3.13;;;1.00;;
13197;SDS011;6664;52.514;13.440;2023-04-12T13:07:23;3.97;;;1.17;;
13197;SDS011;6664;52.514;13.440;2023-04-12T13:10:08;3.87;;;1.13;;
13197;SDS011;6664;52.514;13.440;2023-04-12T13:12:55;1.30;;;1.20;;
13197;SDS011;6664;52.514;13.440;2023-04-12T13:15:42;1.63;;;0.80;;
13197;SDS011;6664;52.514;13.440;2023-04-12T13:18:30;1.43;;;0.90;;
13197;SDS011;6664;52.514;13.440;2023-04-12T13:21:16;1.47;;;0.97;;
13197;SDS011;6664;52.514;13.440;2023-04-12T13:24:01;2.97;;;0.80;;
13197;SDS011;6664;52.514;13.440;2023-04-12T13:26:47;2.40;;;1.17;;
13197;SDS011;6664;52.514;13.440;2023-04-12T13:29:33;6.20;;;1.20;;
13197;SDS011;6664;52.514;13.440;2023-04-12T13:32:18;1.13;;;1.00;;
13197;SDS011;6664;52.514;13.440;2023-04-12T13:35:04;1.17;;;1.07;;
13197;SDS011;6664;52.514;13.440;2023-04-12T13:37:50;1.53;;;0.90;;
13197;SDS011;6664;52.514;13.440;2023-04-12T13:40:36;1.90;;;0.70;;
13197;SDS011;6664;52.514;13.440;2023-04-12T13:43:23;1.13;;;0.93;;
13197;SDS011;6664;52.514;13.440;2023-04-12T13:46:09;1.23;;;1.13;;
13197;SDS011;6664;52.514;13.440;2023-04-12T13:48:57;1.10;;;0.90;;
13197;SDS011;6664;52.514;13.440;2023-04-12T13:51:43;1.43;;;1.00;;
13197;SDS011;6664;52.514;13.440;2023-04-12T13:54:30;1.00;;;1.00;;
13197;SDS011;6664;52.514;13.440;2023-04-12T13:57:16;2.77;;;1.10;;
13197;SDS011;6664;52.514;13.440;2023-04-12T14:00:02;1.60;;;1.10;;
13197;SDS011;6664;52.514;13.440;2023-04-12T14:02:50;1.43;;;1.20;;
13197;SDS011;6664;52.514;13.440;2023-04-12T14:05:36;3.60;;;1.33;;
13197;SDS011;6664;52.514;13.440;2023-04-12T14:08:21;1.73;;;1.10;;
13197;SDS011;6664;52.514;13.440;2023-04-12T14:11:07;2.70;;;1.00;;
13197;SDS011;6664;52.514;13.440;2023-04-12T14:13:53;4.07;;;1.20;;
13197;SDS011;6664;52.514;13.440;2023-04-12T14:16:39;2.33;;;1.10;;
13197;SDS011;6664;52.514;13.440;2023-04-12T14:19:25;2.23;;;1.37;;
13197;SDS011;6664;52.514;13.440;2023-04-12T14:22:12;1.10;;;1.00;;
13197;SDS011;6664;52.514;13.440;2023-04-12T14:25:00;4.50;;;1.10;;
13197;SDS011;6664;52.514;13.440;2023-04-12T14:27:46;3.40;;;1.10;;
13197;SDS011;6664;52.514;13.440;2023-04-12T14:30:31;2.00;;;1.13;;
13197;SDS011;6664;52.514;13.440;2023-04-12T14:33:17;2.97;;;1.43;;
13197;SDS011;6664;52.514;13.440;2023-04-12T14:36:04;1.37;;;1.20;;
13197;SDS011;6664;52.514;13.440;2023-04-12T14:38:52;1.10;;;0.90;;
13197;SDS011;6664;52.514;13.440;2023-04-12T14:41:37;3.30;;;1.60;;
13197;SDS011;6664;52.514;13.440;2023-04-12T14:44:24;1.10;;;1.00;;
13197;SDS011;6664;52.514;13.440;2023-04-12T14:47:11;1.97;;;1.10;;
13197;SDS011;6664;52.514;13.440;2023-04-12T14:49:56;2.53;;;1.27;;
13197;SDS011;6664;52.514;13.440;2023-04-12T14:52:42;2.37;;;1.00;;
13197;SDS011;6664;52.514;13.440;2023-04-12T14:55:27;2.10;;;1.03;;
13197;SDS011;6664;52.514;13.440;2023-04-12T14:58:13;8.33;;;1.43;;
13197;SDS011;6664;52.514;13.440;2023-04-12T15:00:58;2.33;;;1.03;;
13197;SDS011;6664;52.514;13.440;2023-04-12T15:03:45;1.60;;;1.10;;
13197;SDS011;6664;52.514;13.440;2023-04-12T15:06:31;2.20;;;0.90;;
13197;SDS011;6664;52.514;13.440;2023-04-12T15:09:26;2.30;;;1.30;;
13197;SDS011;6664;52.514;13.440;2023-04-12T15:12:12;2.60;;;1.13;;
13197;SDS011;6664;52.514;13.440;2023-04-12T15:15:00;1.47;;;0.90;;
13197;SDS011;6664;52.514;13.440;2023-04-12T15:17:50;1.43;;;1.33;;
13197;SDS011;6664;52.514;13.440;2023-04-12T15:20:38;2.33;;;1.10;;
13197;SDS011;6664;52.514;13.440;2023-04-12T15:23:26;1.23;;;1.13;;
13197;SDS011;6664;52.514;13.440;2023-04-12T15:26:12;2.60;;;1.30;;
13197;SDS011;6664;52.514;13.440;2023-04-12T15:28:58;4.17;;;1.60;;
13197;SDS011;6664;52.514;13.440;2023-04-12T15:31:44;1.47;;;1.37;;
13197;SDS011;6664;52.514;13.440;2023-04-12T15:34:29;1.80;;;1.13;;
13197;SDS011;6664;52.514;13.440;2023-04-12T15:37:17;1.50;;;1.40;;
13197;SDS011;6664;52.514;13.440;2023-04-12T15:40:04;5.20;;;1.47;;
13197;SDS011;6664;52.514;13.440;2023-04-12T15:42:57;1.13;;;1.03;;
13197;SDS011;6664;52.514;13.440;2023-04-12T15:45:42;2.87;;;1.50;;
13197;SDS011;6664;52.514;13.440;2023-04-12T15:48:29;1.63;;;1.53;;
13197;SDS011;6664;52.514;13.440;2023-04-12T15:51:14;1.93;;;1.77;;
13197;SDS011;6664;52.514;13.440;2023-04-12T15:54:00;2.97;;;1.27;;
13197;SDS011;6664;52.514;13.440;2023-04-12T15:56:45;3.23;;;1.50;;
13197;SDS011;6664;52.514;13.440;2023-04-12T15:59:31;1.63;;;1.47;;
13197;SDS011;6664;52.514;13.440;2023-04-12T16:02:20;1.50;;;1.23;;
13197;SDS011;6664;52.514;13.440;2023-04-12T16:05:08;2.13;;;1.40;;
13197;SDS011;6664;52.514;13.440;2023-04-12T16:07:54;4.10;;;1.70;;
13197;SDS011;6664;52.514;13.440;2023-04-12T16:10:40;6.00;;;1.47;;
13197;SDS011;6664;52.514;13.440;2023-04-12T16:13:26;1.67;;;1.57;;
13197;SDS011;6664;52.514;13.440;2023-04-12T16:16:11;2.20;;;2.00;;
13197;SDS011;6664;52.514;13.440;2023-04-12T16:19:01;2.87;;;1.43;;
13197;SDS011;6664;52.514;13.440;2023-04-12T16:21:47;5.00;;;1.63;;
13197;SDS011;6664;52.514;13.440;2023-04-12T16:24:34;3.10;;;1.90;;
13197;SDS011;6664;52.514;13.440;2023-04-12T16:27:21;1.77;;;1.63;;
13197;SDS011;6664;52.514;13.440;2023-04-12T16:30:09;6.70;;;2.20;;
13197;SDS011;6664;52.514;13.440;2023-04-12T16:32:56;2.07;;;1.70;;
13197;SDS011;6664;52.514;13.440;2023-04-12T16:35:44;3.57;;;1.87;;
13197;SDS011;6664;52.514;13.440;2023-04-12T16:38:32;4.50;;;1.90;;
13197;SDS011;6664;52.514;13.440;2023-04-12T16:41:18;2.60;;;1.90;;
13197;SDS011;6664;52.514;13.440;2023-04-12T16:44:04;4.17;;;1.97;;
13197;SDS011;6664;52.514;13.440;2023-04-12T16:46:49;7.60;;;1.60;;
13197;SDS011;6664;52.514;13.440;2023-04-12T16:49:35;2.50;;;1.70;;
13197;SDS011;6664;52.514;13.440;2023-04-12T16:52:22;1.90;;;1.80;;
13197;SDS011;6664;52.514;13.440;2023-04-12T16:55:09;3.17;;;1.93;;
13197;SDS011;6664;52.514;13.440;2023-04-12T16:57:55;4.30;;;2.60;;
13197;SDS011;6664;52.514;13.440;2023-04-12T17:00:43;2.60;;;2.40;;
13197;SDS011;6664;52.514;13.440;2023-04-12T17:03:28;2.40;;;2.20;;
13197;SDS011;6664;52.514;13.440;2023-04-12T17:06:14;3.10;;;2.03;;
13197;SDS011;6664;52.514;13.440;2023-04-12T17:09:00;2.40;;;1.93;;